PWSweather.com
Personal Weather Stations
Station Observations
SHAHALMS1
Eftra, Falkenberg, HA

EftraFalkenberg, HA

Lat: 56.85, Lon: 12.65

Elevation: 140

Station Type:

http://hem.passagen.se/risarp101

High Low Average
Temperature 48.7°F9.3°C 39.7°F4.3°C 44.1°F6.7°C
Dew Point 46.9°F8.3°C 31.5°F-0.3°C 38.9°F3.8°C
Winds 11.2 mph 18.0 kmh 5.1 mph 8.2 kmh 9.0 mph WSW14.5 kmh WSW
Wind Gusts 25.1 mph40.4 kmh 12.2 mph19.6 kmh 18.0 mph29.0 kmh
Humidity 96% 60% 83%
Pressure 30.30 in1026.1 mb 30.15 in1021.0 mb -
Precipitation 0.00 in0.0 mm - -
Hour Temp Dew Point Humidity Winds Wind Gusts Pressure Precip Precip Rate Daily Precip Total
12:00 AM 44.2°F6.8°C 43.2°F6.2°C 96% 7.2 mph S11.6 kmh S 14.3 mph23.0 kmh 30.24 in1024.0 mb 0.00 in0.0 mm 0.00 in0.0 mm 0.00 in0.0 mm
12:15 AM 44.2°F6.8°C 43.2°F6.2°C 96% 6.4 mph S10.3 kmh S 21.8 mph35.1 kmh 30.27 in1025.1 mb 0.00 in0.0 mm 0.00 in0.0 mm 0.00 in0.0 mm
12:30 AM 44.2°F6.8°C 43.2°F6.2°C 96% 6.4 mph S10.3 kmh S 16.5 mph26.6 kmh 30.24 in1024.0 mb 0.00 in0.0 mm 0.00 in0.0 mm 0.00 in0.0 mm
12:45 AM 44.4°F6.9°C 43.4°F6.3°C 96% 6.3 mph S10.1 kmh S 17.2 mph27.7 kmh 30.27 in1025.1 mb 0.00 in0.0 mm 0.00 in0.0 mm 0.00 in0.0 mm
01:00 AM 44.4°F6.9°C 43.4°F6.3°C 96% 6.9 mph S11.1 kmh S 17.5 mph28.2 kmh 30.24 in1024.0 mb 0.00 in0.0 mm 0.00 in0.0 mm 0.00 in0.0 mm
01:15 AM 44.4°F6.9°C 43.4°F6.3°C 96% 5.8 mph S9.3 kmh S 12.2 mph19.6 kmh 30.24 in1024.0 mb 0.00 in0.0 mm 0.00 in0.0 mm 0.00 in0.0 mm
01:30 AM 44.4°F6.9°C 43.4°F6.3°C 96% 6.3 mph S10.1 kmh S 20.0 mph32.2 kmh 30.21 in1023.0 mb 0.00 in0.0 mm 0.00 in0.0 mm 0.00 in0.0 mm
01:45 AM 44.6°F7.0°C 43.5°F6.4°C 96% 5.1 mph S8.2 kmh S 14.0 mph22.5 kmh 30.21 in1023.0 mb 0.00 in0.0 mm 0.00 in0.0 mm 0.00 in0.0 mm
02:00 AM 44.4°F6.9°C 43.4°F6.3°C 96% 5.8 mph S9.3 kmh S 12.2 mph19.6 kmh 30.18 in1022.0 mb 0.00 in0.0 mm 0.00 in0.0 mm 0.00 in0.0 mm
02:15 AM 44.4°F6.9°C 43.4°F6.3°C 96% 7.1 mph S11.4 kmh S 13.6 mph21.9 kmh 30.18 in1022.0 mb 0.00 in0.0 mm 0.00 in0.0 mm 0.00 in0.0 mm
02:30 AM 44.4°F6.9°C 43.4°F6.3°C 96% 6.6 mph S10.6 kmh S 16.5 mph26.6 kmh 30.15 in1021.0 mb 0.00 in0.0 mm 0.00 in0.0 mm 0.00 in0.0 mm
02:45 AM 44.6°F7.0°C 43.5°F6.4°C 96% 6.3 mph S10.1 kmh S 16.5 mph26.6 kmh 30.21 in1023.0 mb 0.00 in0.0 mm 0.00 in0.0 mm 0.00 in0.0 mm
03:00 AM 44.8°F7.1°C 43.7°F6.5°C 96% 7.4 mph S11.9 kmh S 15.4 mph24.8 kmh 30.18 in1022.0 mb 0.00 in0.0 mm 0.00 in0.0 mm 0.00 in0.0 mm
03:15 AM 45.0°F7.2°C 43.9°F6.6°C 96% 8.1 mph S13.0 kmh S 14.3 mph23.0 kmh 30.18 in1022.0 mb 0.00 in0.0 mm 0.00 in0.0 mm 0.00 in0.0 mm
03:30 AM 45.3°F7.4°C 44.2°F6.8°C 96% 9.3 mph S15.0 kmh S 20.8 mph33.5 kmh 30.15 in1021.0 mb 0.00 in0.0 mm 0.00 in0.0 mm 0.00 in0.0 mm
03:45 AM 45.0°F7.2°C 43.9°F6.6°C 96% 9.7 mph SSW15.6 kmh SSW 19.7 mph31.7 kmh 30.15 in1021.0 mb 0.00 in0.0 mm 0.00 in0.0 mm 0.00 in0.0 mm
04:00 AM 44.8°F7.1°C 43.7°F6.5°C 96% 11.2 mph S18.0 kmh S 22.5 mph36.2 kmh 30.15 in1021.0 mb 0.00 in0.0 mm 0.00 in0.0 mm 0.00 in0.0 mm
04:15 AM 44.2°F6.8°C 43.2°F6.2°C 96% 10.1 mph WSW16.3 kmh WSW 16.8 mph27.0 kmh 30.15 in1021.0 mb 0.00 in0.0 mm 0.00 in0.0 mm 0.00 in0.0 mm
04:30 AM 44.1°F6.7°C 43.0°F6.1°C 96% 8.8 mph WSW14.2 kmh WSW 14.7 mph23.7 kmh 30.15 in1021.0 mb 0.00 in0.0 mm 0.00 in0.0 mm 0.00 in0.0 mm
04:45 AM 43.7°F6.5°C 42.6°F5.9°C 96% 9.2 mph WSW14.8 kmh WSW 21.1 mph34.0 kmh 30.15 in1021.0 mb 0.00 in0.0 mm 0.00 in0.0 mm 0.00 in0.0 mm
05:00 AM 43.3°F6.3°C 42.3°F5.7°C 96% 9.9 mph WSW15.9 kmh WSW 20.8 mph33.5 kmh 30.15 in1021.0 mb 0.00 in0.0 mm 0.00 in0.0 mm 0.00 in0.0 mm
05:15 AM 42.8°F6.0°C 41.7°F5.4°C 96% 9.5 mph WSW15.3 kmh WSW 15.7 mph25.3 kmh 30.15 in1021.0 mb 0.00 in0.0 mm 0.00 in0.0 mm 0.00 in0.0 mm
05:30 AM 42.4°F5.8°C 41.4°F5.2°C 96% 7.8 mph WSW12.6 kmh WSW 15.7 mph25.3 kmh 30.15 in1021.0 mb 0.00 in0.0 mm 0.00 in0.0 mm 0.00 in0.0 mm
05:45 AM 42.3°F5.7°C 41.2°F5.1°C 96% 8.0 mph W12.9 kmh W 13.6 mph21.9 kmh 30.15 in1021.0 mb 0.00 in0.0 mm 0.00 in0.0 mm 0.00 in0.0 mm
06:00 AM 42.1°F5.6°C 41.0°F5.0°C 96% 8.0 mph SW12.9 kmh SW 12.9 mph20.8 kmh 30.15 in1021.0 mb 0.00 in0.0 mm 0.00 in0.0 mm 0.00 in0.0 mm
06:15 AM 42.1°F5.6°C 41.0°F5.0°C 96% 8.8 mph SW14.2 kmh SW 17.5 mph28.2 kmh 30.15 in1021.0 mb 0.00 in0.0 mm 0.00 in0.0 mm 0.00 in0.0 mm
06:30 AM 42.3°F5.7°C 41.2°F5.1°C 96% 8.5 mph WSW13.7 kmh WSW 14.0 mph22.5 kmh 30.15 in1021.0 mb 0.00 in0.0 mm 0.00 in0.0 mm 0.00 in0.0 mm
06:45 AM 42.4°F5.8°C 41.4°F5.2°C 96% 8.5 mph WSW13.7 kmh WSW 17.9 mph28.8 kmh 30.15 in1021.0 mb 0.00 in0.0 mm 0.00 in0.0 mm 0.00 in0.0 mm
07:00 AM 42.6°F5.9°C 41.6°F5.3°C 96% 8.6 mph W13.8 kmh W 14.0 mph22.5 kmh 30.15 in1021.0 mb 0.00 in0.0 mm 0.00 in0.0 mm 0.00 in0.0 mm
07:15 AM 42.6°F5.9°C 41.6°F5.3°C 96% 9.4 mph W15.1 kmh W 15.7 mph25.3 kmh 30.15 in1021.0 mb 0.00 in0.0 mm 0.00 in0.0 mm 0.00 in0.0 mm
07:30 AM 42.8°F6.0°C 41.7°F5.4°C 96% 10.4 mph W16.7 kmh W 20.8 mph33.5 kmh 30.15 in1021.0 mb 0.00 in0.0 mm 0.00 in0.0 mm 0.00 in0.0 mm
07:45 AM 43.2°F6.2°C 42.1°F5.6°C 96% 10.1 mph W16.3 kmh W 19.3 mph31.1 kmh 30.15 in1021.0 mb 0.00 in0.0 mm 0.00 in0.0 mm 0.00 in0.0 mm
08:00 AM 43.3°F6.3°C 42.3°F5.7°C 96% 9.6 mph W15.4 kmh W 20.0 mph32.2 kmh 30.15 in1021.0 mb 0.00 in0.0 mm 0.00 in0.0 mm 0.00 in0.0 mm
08:15 AM 44.1°F6.7°C 43.0°F6.1°C 96% 8.9 mph W14.3 kmh W 16.5 mph26.6 kmh 30.15 in1021.0 mb 0.00 in0.0 mm 0.00 in0.0 mm 0.00 in0.0 mm
08:30 AM 44.6°F7.0°C 43.5°F6.4°C 96% 9.3 mph W15.0 kmh W 17.9 mph28.8 kmh 30.15 in1021.0 mb 0.00 in0.0 mm 0.00 in0.0 mm 0.00 in0.0 mm
08:45 AM 44.6°F7.0°C 43.5°F6.4°C 96% 9.4 mph W15.1 kmh W 20.4 mph32.8 kmh 30.15 in1021.0 mb 0.00 in0.0 mm 0.00 in0.0 mm 0.00 in0.0 mm
09:00 AM 45.7°F7.6°C 44.6°F7.0°C 96% 8.0 mph W12.9 kmh W 13.6 mph21.9 kmh 30.18 in1022.0 mb 0.00 in0.0 mm 0.00 in0.0 mm 0.00 in0.0 mm
09:15 AM 46.2°F7.9°C 45.1°F7.3°C 96% 9.1 mph W14.6 kmh W 16.1 mph25.9 kmh 30.18 in1022.0 mb 0.00 in0.0 mm 0.00 in0.0 mm 0.00 in0.0 mm
09:30 AM 46.4°F8.0°C 45.3°F7.4°C 96% 8.2 mph W13.2 kmh W 16.5 mph26.6 kmh 30.18 in1022.0 mb 0.00 in0.0 mm 0.00 in0.0 mm 0.00 in0.0 mm
09:45 AM 46.9°F8.3°C 45.6°F7.6°C 95% 8.7 mph W14.0 kmh W 18.3 mph29.5 kmh 30.18 in1022.0 mb 0.00 in0.0 mm 0.00 in0.0 mm 0.00 in0.0 mm
10:00 AM 47.1°F8.4°C 45.5°F7.5°C 94% 7.9 mph W12.7 kmh W 15.0 mph24.1 kmh 30.18 in1022.0 mb 0.00 in0.0 mm 0.00 in0.0 mm 0.00 in0.0 mm
10:15 AM 48.6°F9.2°C 46.9°F8.3°C 94% 8.1 mph W13.0 kmh W 14.0 mph22.5 kmh 30.18 in1022.0 mb 0.00 in0.0 mm 0.00 in0.0 mm 0.00 in0.0 mm
10:30 AM 48.4°F9.1°C 45.0°F7.2°C 88% 9.5 mph W15.3 kmh W 23.6 mph38.0 kmh 30.18 in1022.0 mb 0.00 in0.0 mm 0.00 in0.0 mm 0.00 in0.0 mm
10:45 AM 48.2°F9.0°C 43.6°F6.4°C 84% 8.5 mph W13.7 kmh W 19.3 mph31.1 kmh 30.18 in1022.0 mb 0.00 in0.0 mm 0.00 in0.0 mm 0.00 in0.0 mm
11:00 AM 48.2°F9.0°C 43.6°F6.4°C 84% 8.3 mph W13.4 kmh W 17.9 mph28.8 kmh 30.18 in1022.0 mb 0.00 in0.0 mm 0.00 in0.0 mm 0.00 in0.0 mm
11:15 AM 47.7°F8.7°C 41.8°F5.4°C 80% 8.8 mph W14.2 kmh W 20.4 mph32.8 kmh 30.21 in1023.0 mb 0.00 in0.0 mm 0.00 in0.0 mm 0.00 in0.0 mm
11:30 AM 46.9°F8.3°C 41.4°F5.2°C 81% 8.0 mph WNW12.9 kmh WNW 17.2 mph27.7 kmh 30.21 in1023.0 mb 0.00 in0.0 mm 0.00 in0.0 mm 0.00 in0.0 mm
11:45 AM 46.9°F8.3°C 41.7°F5.4°C 82% 7.3 mph W11.7 kmh W 15.0 mph24.1 kmh 30.21 in1023.0 mb 0.00 in0.0 mm 0.00 in0.0 mm 0.00 in0.0 mm
12:00 PM 47.3°F8.5°C 41.1°F5.1°C 79% 9.5 mph W15.3 kmh W 19.3 mph31.1 kmh 30.21 in1023.0 mb 0.00 in0.0 mm 0.00 in0.0 mm 0.00 in0.0 mm
12:15 PM 48.0°F8.9°C 41.2°F5.1°C 77% 8.2 mph W13.2 kmh W 17.5 mph28.2 kmh 30.21 in1023.0 mb 0.00 in0.0 mm 0.00 in0.0 mm 0.00 in0.0 mm
12:30 PM 47.8°F8.8°C 40.0°F4.4°C 74% 10.1 mph W16.3 kmh W 20.8 mph33.5 kmh 30.24 in1024.0 mb 0.00 in0.0 mm 0.00 in0.0 mm 0.00 in0.0 mm
12:45 PM 48.7°F9.3°C 40.1°F4.5°C 72% 9.6 mph W15.4 kmh W 23.6 mph38.0 kmh 30.24 in1024.0 mb 0.00 in0.0 mm 0.00 in0.0 mm 0.00 in0.0 mm
01:00 PM 48.6°F9.2°C 38.8°F3.8°C 69% 8.7 mph W14.0 kmh W 19.7 mph31.7 kmh 30.24 in1024.0 mb 0.00 in0.0 mm 0.00 in0.0 mm 0.00 in0.0 mm
01:15 PM 47.8°F8.8°C 36.6°F2.6°C 65% 9.2 mph W14.8 kmh W 21.1 mph34.0 kmh 30.24 in1024.0 mb 0.00 in0.0 mm 0.00 in0.0 mm 0.00 in0.0 mm
01:30 PM 48.2°F9.0°C 37.8°F3.2°C 67% 7.2 mph W11.6 kmh W 12.9 mph20.8 kmh 30.24 in1024.0 mb 0.00 in0.0 mm 0.00 in0.0 mm 0.00 in0.0 mm
01:45 PM 48.6°F9.2°C 37.7°F3.2°C 66% 8.1 mph W13.0 kmh W 16.5 mph26.6 kmh 30.24 in1024.0 mb 0.00 in0.0 mm 0.00 in0.0 mm 0.00 in0.0 mm
02:00 PM 48.4°F9.1°C 37.5°F3.1°C 66% 7.5 mph W12.1 kmh W 16.5 mph26.6 kmh 30.24 in1024.0 mb 0.00 in0.0 mm 0.00 in0.0 mm 0.00 in0.0 mm
02:15 PM 47.7°F8.7°C 35.7°F2.1°C 63% 9.2 mph W14.8 kmh W 23.3 mph37.5 kmh 30.24 in1024.0 mb 0.00 in0.0 mm 0.00 in0.0 mm 0.00 in0.0 mm
02:30 PM 48.0°F8.9°C 36.8°F2.7°C 65% 9.3 mph W15.0 kmh W 16.5 mph26.6 kmh 30.24 in1024.0 mb 0.00 in0.0 mm 0.00 in0.0 mm 0.00 in0.0 mm
02:45 PM 47.7°F8.7°C 36.5°F2.5°C 65% 10.2 mph W16.4 kmh W 24.7 mph39.8 kmh 30.24 in1024.0 mb 0.00 in0.0 mm 0.00 in0.0 mm 0.00 in0.0 mm
03:00 PM 47.1°F8.4°C 35.6°F2.0°C 64% 8.6 mph W13.8 kmh W 22.2 mph35.7 kmh 30.24 in1024.0 mb 0.00 in0.0 mm 0.00 in0.0 mm 0.00 in0.0 mm
03:15 PM 46.6°F8.1°C 35.8°F2.1°C 66% 7.8 mph W12.6 kmh W 20.4 mph32.8 kmh 30.24 in1024.0 mb 0.00 in0.0 mm 0.00 in0.0 mm 0.00 in0.0 mm
03:30 PM 46.4°F8.0°C 35.3°F1.8°C 65% 8.2 mph W13.2 kmh W 22.9 mph36.9 kmh 30.24 in1024.0 mb 0.00 in0.0 mm 0.00 in0.0 mm 0.00 in0.0 mm
03:45 PM 46.2°F7.9°C 34.3°F1.3°C 63% 8.4 mph W13.5 kmh W 20.0 mph32.2 kmh 30.27 in1025.1 mb 0.00 in0.0 mm 0.00 in0.0 mm 0.00 in0.0 mm
04:00 PM 46.0°F7.8°C 33.3°F0.7°C 61% 9.3 mph W15.0 kmh W 19.0 mph30.6 kmh 30.27 in1025.1 mb 0.00 in0.0 mm 0.00 in0.0 mm 0.00 in0.0 mm
04:15 PM 45.7°F7.6°C 33.0°F0.6°C 61% 7.7 mph W12.4 kmh W 16.8 mph27.0 kmh 30.27 in1025.1 mb 0.00 in0.0 mm 0.00 in0.0 mm 0.00 in0.0 mm
04:30 PM 45.5°F7.5°C 32.4°F0.2°C 60% 8.6 mph WNW13.8 kmh WNW 19.7 mph31.7 kmh 30.27 in1025.1 mb 0.00 in0.0 mm 0.00 in0.0 mm 0.00 in0.0 mm
04:45 PM 45.0°F7.2°C 32.3°F0.2°C 61% 8.7 mph W14.0 kmh W 25.1 mph40.4 kmh 30.27 in1025.1 mb 0.00 in0.0 mm 0.00 in0.0 mm 0.00 in0.0 mm
05:00 PM 44.6°F7.0°C 32.4°F0.2°C 62% 9.0 mph W14.5 kmh W 20.0 mph32.2 kmh 30.27 in1025.1 mb 0.00 in0.0 mm 0.00 in0.0 mm 0.00 in0.0 mm
05:15 PM 44.1°F6.7°C 31.9°F-0.1°C 62% 9.8 mph W15.8 kmh W 21.1 mph34.0 kmh 30.27 in1025.1 mb 0.00 in0.0 mm 0.00 in0.0 mm 0.00 in0.0 mm
05:30 PM 43.5°F6.4°C 32.1°F0.1°C 64% 8.0 mph W12.9 kmh W 16.8 mph27.0 kmh 30.27 in1025.1 mb 0.00 in0.0 mm 0.00 in0.0 mm 0.00 in0.0 mm
05:45 PM 43.0°F6.1°C 31.6°F-0.2°C 64% 8.7 mph W14.0 kmh W 21.1 mph34.0 kmh 30.27 in1025.1 mb 0.00 in0.0 mm 0.00 in0.0 mm 0.00 in0.0 mm
06:00 PM 42.4°F5.8°C 31.5°F-0.3°C 65% 8.0 mph W12.9 kmh W 15.7 mph25.3 kmh 30.27 in1025.1 mb 0.00 in0.0 mm 0.00 in0.0 mm 0.00 in0.0 mm
06:15 PM 42.1°F5.6°C 31.9°F-0.1°C 67% 9.2 mph W14.8 kmh W 21.1 mph34.0 kmh 30.27 in1025.1 mb 0.00 in0.0 mm 0.00 in0.0 mm 0.00 in0.0 mm
06:30 PM 41.7°F5.4°C 32.3°F0.2°C 69% 9.5 mph W15.3 kmh W 20.0 mph32.2 kmh 30.27 in1025.1 mb 0.00 in0.0 mm 0.00 in0.0 mm 0.00 in0.0 mm
06:45 PM 41.4°F5.2°C 32.7°F0.4°C 71% 9.0 mph W14.5 kmh W 20.4 mph32.8 kmh 30.27 in1025.1 mb 0.00 in0.0 mm 0.00 in0.0 mm 0.00 in0.0 mm
07:00 PM 41.2°F5.1°C 32.8°F0.4°C 72% 8.5 mph W13.7 kmh W 15.7 mph25.3 kmh 30.27 in1025.1 mb 0.00 in0.0 mm 0.00 in0.0 mm 0.00 in0.0 mm
07:15 PM 41.2°F5.1°C 32.8°F0.4°C 72% 9.7 mph W15.6 kmh W 16.8 mph27.0 kmh 30.27 in1025.1 mb 0.00 in0.0 mm 0.00 in0.0 mm 0.00 in0.0 mm
07:30 PM 41.0°F5.0°C 32.7°F0.4°C 72% 9.8 mph W15.8 kmh W 23.3 mph37.5 kmh 30.27 in1025.1 mb 0.00 in0.0 mm 0.00 in0.0 mm 0.00 in0.0 mm
07:45 PM 40.8°F4.9°C 33.2°F0.7°C 74% 9.1 mph W14.6 kmh W 16.8 mph27.0 kmh 30.27 in1025.1 mb 0.00 in0.0 mm 0.00 in0.0 mm 0.00 in0.0 mm
08:00 PM 40.6°F4.8°C 33.0°F0.6°C 74% 8.1 mph W13.0 kmh W 16.1 mph25.9 kmh 30.27 in1025.1 mb 0.00 in0.0 mm 0.00 in0.0 mm 0.00 in0.0 mm
08:15 PM 40.5°F4.7°C 33.5°F0.8°C 76% 8.7 mph W14.0 kmh W 17.5 mph28.2 kmh 30.27 in1025.1 mb 0.00 in0.0 mm 0.00 in0.0 mm 0.00 in0.0 mm
08:30 PM 40.3°F4.6°C 33.6°F0.9°C 77% 8.0 mph W12.9 kmh W 16.5 mph26.6 kmh 30.27 in1025.1 mb 0.00 in0.0 mm 0.00 in0.0 mm 0.00 in0.0 mm
08:45 PM 40.1°F4.5°C 33.8°F1.0°C 78% 8.2 mph W13.2 kmh W 16.5 mph26.6 kmh 30.27 in1025.1 mb 0.00 in0.0 mm 0.00 in0.0 mm 0.00 in0.0 mm
09:00 PM 40.3°F4.6°C 34.0°F1.1°C 78% 9.5 mph W15.3 kmh W 20.0 mph32.2 kmh 30.27 in1025.1 mb 0.00 in0.0 mm 0.00 in0.0 mm 0.00 in0.0 mm
09:15 PM 40.1°F4.5°C 34.1°F1.2°C 79% 9.3 mph W15.0 kmh W 16.8 mph27.0 kmh 30.27 in1025.1 mb 0.00 in0.0 mm 0.00 in0.0 mm 0.00 in0.0 mm
09:30 PM 40.1°F4.5°C 34.1°F1.2°C 79% 8.9 mph W14.3 kmh W 19.0 mph30.6 kmh 30.27 in1025.1 mb 0.00 in0.0 mm 0.00 in0.0 mm 0.00 in0.0 mm
09:45 PM 39.9°F4.4°C 33.9°F1.1°C 79% 8.0 mph W12.9 kmh W 14.7 mph23.7 kmh 30.27 in1025.1 mb 0.00 in0.0 mm 0.00 in0.0 mm 0.00 in0.0 mm
10:00 PM 39.9°F4.4°C 34.2°F1.2°C 80% 9.2 mph W14.8 kmh W 23.6 mph38.0 kmh 30.27 in1025.1 mb 0.00 in0.0 mm 0.00 in0.0 mm 0.00 in0.0 mm
10:15 PM 39.9°F4.4°C 34.2°F1.2°C 80% 9.8 mph W15.8 kmh W 23.6 mph38.0 kmh 30.27 in1025.1 mb 0.00 in0.0 mm 0.00 in0.0 mm 0.00 in0.0 mm
10:30 PM 39.9°F4.4°C 34.2°F1.2°C 80% 10.1 mph W16.3 kmh W 22.2 mph35.7 kmh 30.27 in1025.1 mb 0.00 in0.0 mm 0.00 in0.0 mm 0.00 in0.0 mm
10:45 PM 39.9°F4.4°C 34.6°F1.4°C 81% 8.5 mph W13.7 kmh W 20.4 mph32.8 kmh 30.27 in1025.1 mb 0.00 in0.0 mm 0.00 in0.0 mm 0.00 in0.0 mm
11:00 PM 39.9°F4.4°C 34.9°F1.6°C 82% 7.9 mph W12.7 kmh W 15.4 mph24.8 kmh 30.30 in1026.1 mb 0.00 in0.0 mm 0.00 in0.0 mm 0.00 in0.0 mm
11:15 PM 39.7°F4.3°C 35.0°F1.7°C 83% 8.5 mph W13.7 kmh W 17.5 mph28.2 kmh 30.30 in1026.1 mb 0.00 in0.0 mm 0.00 in0.0 mm 0.00 in0.0 mm
11:30 PM 39.7°F4.3°C 35.0°F1.7°C 83% 8.4 mph W13.5 kmh W 16.8 mph27.0 kmh 30.27 in1025.1 mb 0.00 in0.0 mm 0.00 in0.0 mm 0.00 in0.0 mm
11:45 PM 39.7°F4.3°C 35.3°F1.8°C 84% 9.5 mph W15.3 kmh W 19.0 mph30.6 kmh 30.27 in1025.1 mb 0.00 in0.0 mm 0.00 in0.0 mm 0.00 in0.0 mm